createdAt,value
2019-03-11T00:01:26.289Z,79.90
2019-03-11T00:03:55.140Z,80.00
2019-03-11T00:06:26.624Z,80.00
2019-03-11T00:08:55.323Z,80.10
2019-03-11T00:11:24.106Z,81.00
2019-03-11T00:13:52.909Z,79.90
2019-03-11T00:16:21.704Z,79.80
2019-03-11T00:18:50.532Z,79.60
2019-03-11T00:21:19.245Z,79.80
2019-03-11T00:23:48.093Z,79.20
2019-03-11T00:26:16.821Z,80.10
2019-03-11T00:28:45.597Z,79.50
2019-03-11T00:31:14.529Z,79.60
2019-03-11T00:33:43.301Z,79.10
2019-03-11T00:36:12.041Z,79.40
2019-03-11T00:38:40.746Z,79.40
2019-03-11T00:41:09.477Z,79.00
2019-03-11T00:43:38.438Z,79.40
2019-03-11T00:46:07.197Z,79.30
2019-03-11T00:48:35.912Z,79.50
2019-03-11T00:51:04.616Z,79.30
2019-03-11T00:53:33.385Z,79.50
2019-03-11T00:56:02.254Z,79.50
2019-03-11T00:58:31.413Z,79.30
2019-03-11T01:01:00.538Z,79.40
2019-03-11T01:03:29.302Z,79.30
2019-03-11T01:05:58.106Z,79.30
2019-03-11T01:08:29.049Z,79.30
2019-03-11T01:10:57.293Z,79.20
2019-03-11T01:13:26.133Z,79.30
2019-03-11T01:15:54.835Z,79.20
2019-03-11T01:18:23.537Z,79.00
2019-03-11T01:20:52.301Z,79.30
2019-03-11T01:23:21.053Z,79.20
2019-03-11T01:25:49.833Z,79.10
2019-03-11T01:28:18.533Z,78.90
2019-03-11T01:30:47.451Z,78.70
2019-03-11T01:33:16.473Z,78.20
2019-03-11T01:35:45.178Z,79.00
2019-03-11T01:38:13.922Z,78.90
2019-03-11T01:40:42.734Z,78.70
2019-03-11T01:43:13.503Z,78.70
2019-03-11T01:45:41.883Z,78.50
2019-03-11T01:48:10.609Z,78.10
2019-03-11T01:50:39.314Z,78.10
2019-03-11T01:53:08.019Z,78.30
2019-03-11T01:55:36.731Z,77.90
2019-03-11T01:58:05.532Z,77.90
2019-03-11T02:00:34.281Z,77.50
2019-03-11T02:03:03.063Z,77.30
2019-03-11T02:05:31.790Z,77.50
2019-03-11T02:08:00.501Z,77.50
2019-03-11T02:10:29.357Z,78.20
2019-03-11T02:12:58.073Z,77.50
2019-03-11T02:15:26.922Z,77.40
2019-03-11T02:17:55.681Z,77.60
2019-03-11T02:20:24.377Z,77.50
2019-03-11T02:22:53.099Z,77.50
2019-03-11T02:25:21.917Z,77.80
2019-03-11T02:27:50.643Z,77.50
2019-03-11T02:30:19.347Z,77.50
2019-03-11T02:32:48.058Z,77.60
2019-03-11T02:35:27.133Z,77.60
2019-03-11T02:37:56.061Z,77.60
2019-03-11T02:40:24.776Z,77.60
2019-03-11T02:42:53.482Z,77.60
2019-03-11T02:45:22.342Z,77.70
2019-03-11T02:47:51.062Z,77.70
2019-03-11T02:50:19.853Z,77.60
2019-03-11T02:52:48.644Z,77.70
2019-03-11T02:55:17.325Z,77.20
2019-03-11T02:57:46.043Z,77.10
2019-03-11T03:00:16.321Z,77.10
2019-03-11T03:03:06.589Z,77.30
2019-03-11T03:05:39.834Z,77.20
2019-03-11T03:08:08.587Z,77.10
2019-03-11T03:10:37.286Z,77.00
2019-03-11T03:13:06.223Z,77.00
2019-03-11T03:15:34.932Z,76.90
2019-03-11T03:18:03.713Z,77.30
2019-03-11T03:20:32.543Z,76.70
2019-03-11T03:23:01.282Z,76.40
2019-03-11T03:25:34.327Z,76.50
2019-03-11T03:28:00.576Z,76.70
2019-03-11T03:30:29.494Z,76.50
2019-03-11T03:32:58.386Z,76.70
2019-03-11T03:35:27.190Z,76.50
2019-03-11T03:37:56.015Z,76.80
2019-03-11T03:40:24.740Z,76.90
2019-03-11T03:42:53.588Z,76.80
2019-03-11T03:45:33.527Z,76.90
2019-03-11T03:48:02.446Z,77.30
2019-03-11T03:50:33.050Z,77.20
2019-03-11T03:53:01.769Z,77.50
2019-03-11T03:55:30.521Z,77.80
2019-03-11T03:57:59.222Z,77.80
2019-03-11T04:00:28.017Z,77.80
2019-03-11T04:02:56.738Z,77.70
2019-03-11T04:05:25.617Z,78.20
2019-03-11T04:07:54.362Z,78.50
2019-03-11T04:10:23.159Z,78.80
2019-03-11T04:12:51.894Z,78.80
2019-03-11T04:15:20.750Z,79.00
2019-03-11T04:17:49.636Z,79.50
2019-03-11T04:20:18.996Z,79.40
2019-03-11T04:22:47.808Z,79.90
2019-03-11T04:25:16.672Z,80.20
2019-03-11T04:27:45.561Z,80.40
2019-03-11T04:30:16.569Z,80.40
2019-03-11T04:32:45.293Z,80.30
2019-03-11T04:35:14.098Z,80.80
2019-03-11T04:37:42.873Z,80.40
2019-03-11T04:40:13.385Z,80.80
2019-03-11T04:42:42.413Z,81.50
2019-03-11T04:45:12.289Z,81.70
2019-03-11T04:47:41.093Z,81.90
2019-03-11T04:50:11.524Z,82.20
2019-03-11T04:52:40.309Z,82.40
2019-03-11T04:55:10.029Z,82.40
2019-03-11T04:57:43.449Z,82.80
2019-03-11T05:00:14.569Z,83.00
2019-03-11T05:02:43.371Z,82.40
2019-03-11T05:05:12.214Z,82.30
2019-03-11T05:07:41.005Z,82.00
2019-03-11T05:10:10.550Z,81.80
2019-03-11T05:12:39.377Z,81.50
2019-03-11T05:15:08.797Z,81.10
2019-03-11T05:17:37.798Z,80.90
2019-03-11T05:20:07.055Z,80.90
2019-03-11T05:22:36.148Z,80.80
2019-03-11T05:25:05.701Z,80.60
2019-03-11T05:27:34.637Z,81.10
2019-03-11T05:30:03.508Z,80.60
2019-03-11T05:32:32.294Z,81.00
2019-03-11T05:35:01.069Z,81.10
2019-03-11T05:37:29.807Z,81.10
2019-03-11T05:39:58.535Z,80.90
2019-03-11T05:42:27.269Z,81.40
2019-03-11T05:44:56.089Z,81.80
2019-03-11T05:47:24.863Z,81.40
2019-03-11T05:49:53.557Z,82.40
2019-03-11T05:52:22.265Z,81.60
2019-03-11T05:54:51.089Z,81.90
2019-03-11T05:57:19.801Z,81.60
2019-03-11T05:59:48.509Z,81.60
2019-03-11T06:02:17.213Z,81.80
2019-03-11T06:04:45.914Z,81.90
2019-03-11T06:07:14.704Z,82.00
2019-03-11T06:09:43.394Z,81.80
2019-03-11T06:12:12.181Z,82.10
2019-03-11T06:14:40.898Z,82.30
2019-03-11T06:17:09.610Z,82.30
2019-03-11T06:19:38.305Z,82.20
2019-03-11T06:22:10.177Z,82.00
2019-03-11T06:24:38.874Z,82.00
2019-03-11T06:27:07.561Z,81.90
2019-03-11T06:29:36.277Z,81.90
2019-03-11T06:32:05.170Z,81.70
2019-03-11T06:34:33.874Z,81.70
2019-03-11T06:37:02.683Z,81.90
2019-03-11T06:39:31.561Z,81.50
2019-03-11T06:42:00.265Z,81.70
2019-03-11T06:44:28.988Z,81.20
2019-03-11T06:46:57.678Z,80.80
2019-03-11T06:49:26.378Z,80.80
2019-03-11T06:51:55.285Z,80.70
2019-03-11T06:54:23.989Z,80.60
2019-03-11T06:56:52.688Z,80.60
2019-03-11T06:59:21.401Z,80.20
2019-03-11T07:01:50.125Z,80.30
2019-03-11T07:04:18.834Z,80.00
2019-03-11T07:06:47.542Z,79.70
2019-03-11T07:09:16.465Z,79.80
2019-03-11T07:11:45.239Z,79.60
2019-03-11T07:14:14.094Z,79.30
2019-03-11T07:16:43.042Z,79.00
2019-03-11T07:19:11.903Z,79.40
2019-03-11T07:21:42.759Z,78.80
2019-03-11T07:24:11.514Z,79.40
2019-03-11T07:26:40.218Z,79.30
2019-03-11T07:29:08.981Z,79.50
2019-03-11T07:31:37.697Z,79.10
2019-03-11T07:34:06.389Z,79.10
2019-03-11T07:36:35.097Z,79.00
2019-03-11T07:39:05.045Z,79.10
2019-03-11T07:41:33.818Z,79.20
2019-03-11T07:44:02.610Z,79.10
2019-03-11T07:46:31.362Z,79.40
2019-03-11T07:49:00.053Z,79.00
2019-03-11T07:51:28.782Z,79.00
2019-03-11T07:53:57.478Z,79.40
2019-03-11T07:56:26.169Z,78.40
2019-03-11T07:58:55.038Z,78.30
2019-03-11T08:01:23.745Z,78.20
2019-03-11T08:03:52.448Z,78.50
2019-03-11T08:06:21.189Z,78.50
2019-03-11T08:08:49.895Z,79.40
2019-03-11T08:11:18.644Z,79.60
2019-03-11T08:13:47.414Z,79.50
2019-03-11T08:16:16.193Z,79.70
2019-03-11T08:18:44.897Z,79.60
2019-03-11T08:21:15.722Z,79.20
2019-03-11T08:23:44.421Z,79.10
2019-03-11T08:26:14.299Z,79.40
2019-03-11T08:28:43.021Z,79.70
2019-03-11T08:31:11.842Z,80.20
2019-03-11T08:33:40.535Z,79.50
2019-03-11T08:36:09.261Z,80.10
2019-03-11T08:38:37.977Z,81.40
2019-03-11T08:41:06.689Z,80.80
2019-03-11T08:43:35.401Z,80.40
2019-03-11T08:46:04.174Z,80.40
2019-03-11T08:48:32.870Z,80.50
2019-03-11T08:51:01.625Z,81.00
2019-03-11T08:53:30.322Z,81.00
2019-03-11T08:55:59.081Z,81.00
2019-03-11T08:58:27.799Z,82.00
2019-03-11T09:00:56.488Z,81.50
2019-03-11T09:03:25.170Z,82.10
2019-03-11T09:05:53.893Z,82.00
2019-03-11T09:08:22.613Z,82.60
2019-03-11T09:10:51.418Z,82.90
2019-03-11T09:13:20.133Z,83.20
2019-03-11T09:15:48.950Z,83.80
2019-03-11T09:18:17.669Z,84.00
2019-03-11T09:20:46.393Z,84.00
2019-03-11T09:23:15.278Z,84.60
2019-03-11T09:25:43.981Z,84.30
2019-03-11T09:28:12.718Z,85.20
2019-03-11T09:30:41.570Z,84.20
2019-03-11T09:33:10.433Z,85.50
2019-03-11T09:35:39.157Z,85.20
2019-03-11T09:38:07.937Z,84.70
2019-03-11T09:40:36.661Z,84.90
2019-03-11T09:43:05.441Z,84.30
2019-03-11T09:45:34.198Z,84.50
2019-03-11T09:48:02.969Z,84.70
2019-03-11T09:50:31.755Z,85.50
2019-03-11T09:53:00.605Z,84.90
2019-03-11T09:55:29.319Z,84.20
2019-03-11T09:57:58.175Z,83.20
2019-03-11T10:00:26.969Z,83.60
2019-03-11T10:02:55.776Z,82.70
2019-03-11T10:05:24.563Z,82.60
2019-03-11T10:07:53.427Z,81.60
2019-03-11T10:10:24.171Z,80.70
2019-03-11T10:12:52.995Z,81.60
2019-03-11T10:15:21.841Z,80.90
2019-03-11T10:17:50.730Z,80.60
2019-03-11T10:20:19.889Z,80.60
2019-03-11T10:22:48.778Z,80.60
2019-03-11T10:25:17.579Z,81.00
2019-03-11T10:27:46.485Z,81.50
2019-03-11T10:30:16.126Z,82.00
2019-03-11T10:32:44.858Z,82.00
2019-03-11T10:35:30.950Z,81.80
2019-03-11T10:37:45.533Z,82.80
2019-03-11T10:40:16.343Z,83.20
2019-03-11T10:42:45.133Z,83.40
2019-03-11T10:45:14.117Z,82.90
2019-03-11T10:47:42.894Z,83.80
2019-03-11T10:50:14.885Z,83.80
2019-03-11T10:52:43.673Z,83.60
2019-03-11T10:55:16.281Z,83.50
2019-03-11T10:57:45.068Z,83.00
2019-03-11T11:00:16.594Z,82.90
2019-03-11T11:02:45.466Z,82.60
2019-03-11T11:05:15.738Z,82.30
2019-03-11T11:07:44.501Z,82.50
2019-03-11T11:10:13.557Z,82.50
2019-03-11T11:12:42.409Z,81.50
2019-03-11T11:15:14.089Z,81.00
2019-03-11T11:17:42.807Z,79.40
2019-03-11T11:20:12.106Z,80.40
2019-03-11T11:22:40.822Z,79.70
2019-03-11T11:25:11.423Z,80.10
2019-03-11T11:27:40.126Z,78.90
2019-03-11T11:30:14.548Z,78.60
2019-03-11T11:32:43.245Z,78.00
2019-03-11T11:35:12.200Z,76.70
2019-03-11T11:37:40.942Z,75.80
2019-03-11T11:40:12.538Z,74.60
2019-03-11T11:42:41.252Z,74.30
2019-03-11T11:45:11.648Z,74.00
2019-03-11T11:47:40.350Z,72.80
2019-03-11T11:50:11.261Z,72.80
2019-03-11T11:52:59.225Z,71.30
2019-03-11T11:55:57.331Z,68.80
2019-03-11T11:58:17.634Z,69.50
2019-03-11T12:00:47.817Z,73.00
2019-03-11T12:03:16.534Z,72.40
2019-03-11T12:05:45.255Z,72.60
2019-03-11T12:08:14.027Z,72.50
2019-03-11T12:10:42.793Z,72.40
2019-03-11T12:13:12.745Z,70.50
2019-03-11T12:15:41.400Z,70.10
2019-03-11T12:18:10.198Z,69.00
2019-03-11T12:20:38.906Z,69.50
2019-03-11T12:23:07.701Z,70.00
2019-03-11T12:25:36.510Z,69.10
2019-03-11T12:28:05.555Z,69.80
2019-03-11T12:30:34.418Z,69.10
2019-03-11T12:33:03.380Z,68.80
2019-03-11T12:35:32.099Z,68.30
2019-03-11T12:38:00.874Z,67.80
2019-03-11T12:40:29.650Z,67.10
2019-03-11T12:42:58.358Z,66.20
2019-03-11T12:45:27.459Z,65.90
2019-03-11T12:47:56.211Z,66.50
2019-03-11T12:50:25.022Z,67.50
2019-03-11T12:52:54.574Z,67.20
2019-03-11T12:55:23.366Z,65.80
2019-03-11T12:57:52.236Z,66.30
2019-03-11T13:00:21.112Z,64.90
2019-03-11T13:02:49.971Z,66.30
2019-03-11T13:05:18.848Z,66.70
2019-03-11T13:07:48.001Z,66.50
2019-03-11T13:10:18.057Z,66.80
2019-03-11T13:12:47.048Z,67.10
2019-03-11T13:15:16.271Z,66.70
2019-03-11T13:17:45.130Z,66.10
2019-03-11T13:20:26.386Z,65.90
2019-03-11T13:22:55.246Z,66.10
2019-03-11T13:25:24.094Z,65.20
2019-03-11T13:27:52.909Z,65.50
2019-03-11T13:30:22.093Z,65.30
2019-03-11T13:32:53.071Z,65.00
2019-03-11T13:35:22.269Z,64.90
2019-03-11T13:37:51.041Z,65.60
2019-03-11T13:40:20.475Z,65.40
2019-03-11T13:42:49.209Z,65.40
2019-03-11T13:45:18.622Z,65.10
2019-03-11T13:47:47.637Z,65.10
2019-03-11T13:50:16.508Z,63.70
2019-03-11T13:52:45.477Z,64.20
2019-03-11T13:55:17.145Z,63.90
2019-03-11T13:57:46.087Z,64.20
2019-03-11T14:00:15.873Z,64.30
2019-03-11T14:02:44.605Z,64.60
2019-03-11T14:05:13.663Z,64.40
2019-03-11T14:07:42.374Z,64.80
2019-03-11T14:10:11.240Z,63.70
2019-03-11T14:12:40.115Z,63.90
2019-03-11T14:15:09.386Z,64.00
2019-03-11T14:17:38.321Z,63.90
2019-03-11T14:20:07.398Z,64.40
2019-03-11T14:22:36.134Z,64.10
2019-03-11T14:25:05.176Z,62.80
2019-03-11T14:27:34.254Z,62.50
2019-03-11T14:30:03.117Z,62.60
2019-03-11T14:32:36.234Z,62.90
2019-03-11T14:35:05.327Z,62.50
2019-03-11T14:37:34.058Z,63.40
2019-03-11T14:40:02.852Z,62.80
2019-03-11T14:42:31.621Z,63.10
2019-03-11T14:45:00.515Z,62.50
2019-03-11T14:47:29.342Z,62.30
2019-03-11T14:49:58.159Z,63.00
2019-03-11T14:52:26.922Z,62.80
2019-03-11T14:54:55.619Z,63.10
2019-03-11T14:57:24.346Z,63.60
2019-03-11T14:59:53.114Z,63.90
2019-03-11T15:02:21.830Z,63.80
2019-03-11T15:04:51.319Z,64.60
2019-03-11T15:07:21.014Z,64.20
2019-03-11T15:09:51.607Z,64.60
2019-03-11T15:12:20.298Z,63.90
2019-03-11T15:14:49.015Z,64.00
2019-03-11T15:17:17.737Z,64.00
2019-03-11T15:19:46.464Z,64.80
2019-03-11T15:22:15.374Z,64.40
2019-03-11T15:24:44.149Z,64.30
2019-03-11T15:27:12.982Z,64.20
2019-03-11T15:29:41.709Z,64.70
2019-03-11T15:32:10.498Z,64.50
2019-03-11T15:34:39.371Z,63.40
2019-03-11T15:37:08.134Z,62.90
2019-03-11T15:39:36.865Z,62.80
2019-03-11T15:42:05.615Z,63.70
2019-03-11T15:44:34.305Z,63.30
2019-03-11T15:47:03.014Z,63.30
2019-03-11T15:49:31.741Z,63.60
2019-03-11T15:52:00.437Z,63.10
2019-03-11T15:54:29.281Z,63.10
2019-03-11T15:56:58.161Z,62.80
2019-03-11T15:59:26.908Z,62.80
2019-03-11T16:01:55.656Z,62.30
2019-03-11T16:04:24.366Z,62.70
2019-03-11T16:06:53.134Z,62.50
2019-03-11T16:09:21.879Z,62.90
2019-03-11T16:11:50.598Z,63.20
2019-03-11T16:14:19.401Z,63.10
2019-03-11T16:16:48.229Z,63.20
2019-03-11T16:19:16.967Z,63.50
2019-03-11T16:21:45.814Z,63.00
2019-03-11T16:24:14.637Z,63.20
2019-03-11T16:26:43.378Z,62.80
2019-03-11T16:29:12.310Z,63.10
2019-03-11T16:31:41.019Z,63.00
2019-03-11T16:34:10.848Z,63.10
2019-03-11T16:36:39.554Z,63.70
2019-03-11T16:39:09.038Z,63.90
2019-03-11T16:41:37.972Z,64.40
2019-03-11T16:44:06.677Z,64.50
2019-03-11T16:46:35.494Z,64.80
2019-03-11T16:49:04.314Z,64.50
2019-03-11T16:51:33.029Z,64.50
2019-03-11T16:54:01.847Z,64.70
2019-03-11T16:56:30.599Z,64.30
2019-03-11T16:58:59.309Z,64.40
2019-03-11T17:01:28.031Z,64.50
2019-03-11T17:03:56.770Z,64.30
2019-03-11T17:06:25.517Z,63.80
2019-03-11T17:08:54.349Z,63.40
2019-03-11T17:11:23.233Z,63.60
2019-03-11T17:13:52.009Z,64.00
2019-03-11T17:16:20.729Z,64.20
2019-03-11T17:18:49.728Z,64.30
2019-03-11T17:21:18.450Z,63.70
2019-03-11T17:23:47.317Z,64.90
2019-03-11T17:26:16.178Z,64.70
2019-03-11T17:28:44.893Z,64.50
2019-03-11T17:31:13.728Z,64.70
2019-03-11T17:33:42.594Z,65.30
2019-03-11T17:36:12.394Z,65.10
2019-03-11T17:38:41.630Z,65.20
2019-03-11T17:41:10.537Z,65.30
2019-03-11T17:43:39.407Z,65.00
2019-03-11T17:46:08.306Z,65.00
2019-03-11T17:48:37.030Z,64.60
2019-03-11T17:51:05.834Z,64.70
2019-03-11T17:53:34.656Z,64.30
2019-03-11T17:56:03.463Z,64.50
2019-03-11T17:58:32.233Z,64.90
2019-03-11T18:01:01.140Z,65.00
2019-03-11T18:03:29.960Z,65.20
2019-03-11T18:05:58.646Z,65.00
2019-03-11T18:08:27.586Z,64.80
2019-03-11T18:10:56.393Z,65.20
2019-03-11T18:13:25.111Z,65.10
2019-03-11T18:15:53.901Z,64.90
2019-03-11T18:18:32.717Z,64.50
2019-03-11T18:20:53.178Z,65.20
2019-03-11T18:23:22.022Z,65.10
2019-03-11T18:25:50.742Z,65.00
2019-03-11T18:28:20.568Z,65.20
2019-03-11T18:31:08.878Z,64.90
2019-03-11T18:33:37.888Z,65.70
2019-03-11T18:36:07.847Z,66.50
2019-03-11T18:38:36.741Z,66.80
2019-03-11T18:41:05.523Z,67.00
2019-03-11T18:43:42.775Z,67.30
2019-03-11T18:46:04.883Z,67.50
2019-03-11T18:48:33.672Z,67.80
2019-03-11T18:51:10.756Z,67.80
2019-03-11T18:53:33.105Z,67.70
2019-03-11T18:56:01.894Z,67.90
2019-03-11T18:58:30.602Z,68.20
2019-03-11T19:00:59.323Z,68.00
2019-03-11T19:03:28.126Z,68.00
2019-03-11T19:05:56.973Z,68.30
2019-03-11T19:08:28.449Z,68.30
2019-03-11T19:10:57.219Z,67.80
2019-03-11T19:13:26.048Z,68.20
2019-03-11T19:15:54.903Z,68.00
2019-03-11T19:18:23.666Z,68.90
2019-03-11T19:20:52.396Z,68.10
2019-03-11T19:23:21.190Z,68.00
2019-03-11T19:25:49.928Z,68.10
2019-03-11T19:28:18.864Z,68.10
2019-03-11T19:30:47.802Z,68.20
2019-03-11T19:33:16.568Z,68.10
2019-03-11T19:35:45.371Z,68.50
2019-03-11T19:38:15.495Z,68.60
2019-03-11T19:40:44.203Z,68.80
2019-03-11T19:43:13.153Z,68.90
2019-03-11T19:45:41.951Z,68.70
2019-03-11T19:48:26.595Z,68.80
2019-03-11T19:50:55.376Z,67.90
2019-03-11T19:53:24.279Z,68.90
2019-03-11T19:55:53.111Z,68.80
2019-03-11T19:58:21.867Z,69.00
2019-03-11T20:00:50.756Z,69.80
2019-03-11T20:03:26.836Z,69.30
2019-03-11T20:05:50.150Z,69.20
2019-03-11T20:08:21.565Z,69.60
2019-03-11T20:10:50.488Z,69.30
2019-03-11T20:13:19.392Z,69.60
2019-03-11T20:15:48.304Z,69.70
2019-03-11T20:18:17.259Z,69.90
2019-03-11T20:20:46.173Z,69.70
2019-03-11T20:23:17.635Z,70.10
2019-03-11T20:25:46.385Z,70.20
2019-03-11T20:28:15.316Z,70.10
2019-03-11T20:30:45.524Z,69.80
2019-03-11T20:33:14.753Z,70.30
2019-03-11T20:35:43.563Z,69.70
2019-03-11T20:38:12.507Z,70.50
2019-03-11T20:40:41.436Z,70.80
2019-03-11T20:43:10.315Z,71.00
2019-03-11T20:45:41.205Z,71.10
2019-03-11T20:48:09.978Z,71.20
2019-03-11T20:50:42.372Z,71.30
2019-03-11T20:53:09.571Z,71.00
2019-03-11T20:55:40.447Z,71.80
2019-03-11T20:58:11.557Z,71.80
2019-03-11T21:00:40.485Z,72.20
2019-03-11T21:03:09.499Z,72.20
2019-03-11T21:05:38.409Z,72.30
2019-03-11T21:08:07.273Z,72.40
2019-03-11T21:10:36.171Z,72.60
2019-03-11T21:13:11.495Z,73.00
2019-03-11T21:15:45.603Z,72.40
2019-03-11T21:18:14.597Z,72.80
2019-03-11T21:20:43.468Z,73.20
2019-03-11T21:23:12.615Z,73.30
2019-03-11T21:25:41.418Z,73.40
2019-03-11T21:28:15.802Z,73.50
2019-03-11T21:30:44.581Z,73.50
2019-03-11T21:33:13.580Z,73.50
2019-03-11T21:35:42.785Z,74.50
2019-03-11T21:38:11.584Z,73.40
2019-03-11T21:40:40.409Z,74.00
2019-03-11T21:43:09.191Z,74.40
2019-03-11T21:45:38.014Z,74.20
2019-03-11T21:48:09.525Z,74.30
2019-03-11T21:50:38.401Z,73.40
2019-03-11T21:53:07.146Z,74.30
2019-03-11T21:55:36.157Z,74.60
2019-03-11T21:58:13.269Z,74.40
2019-03-11T22:00:37.060Z,74.50
2019-03-11T22:03:05.922Z,74.70
2019-03-11T22:05:34.625Z,75.00
2019-03-11T22:08:03.329Z,75.00
2019-03-11T22:10:32.186Z,75.00
2019-03-11T22:13:01.297Z,75.70
2019-03-11T22:15:32.184Z,74.90
2019-03-11T22:18:00.904Z,74.90
2019-03-11T22:20:29.852Z,74.40
2019-03-11T22:22:58.693Z,74.50
2019-03-11T22:25:27.519Z,74.50
2019-03-11T22:27:56.241Z,74.40
2019-03-11T22:30:25.750Z,74.50
2019-03-11T22:32:57.075Z,74.20
2019-03-11T22:35:28.935Z,73.30
2019-03-11T22:37:57.975Z,74.10
2019-03-11T22:40:26.703Z,74.50
2019-03-11T22:42:55.497Z,74.00
2019-03-11T22:45:24.429Z,75.00
2019-03-11T22:47:53.410Z,74.00
2019-03-11T22:50:25.309Z,73.80
2019-03-11T22:52:55.365Z,73.80
2019-03-11T22:55:26.414Z,73.40
2019-03-11T22:57:55.279Z,73.90
2019-03-11T23:00:41.475Z,73.90
2019-03-11T23:03:10.570Z,74.10
2019-03-11T23:05:39.357Z,73.80
2019-03-11T23:08:08.180Z,74.20
2019-03-11T23:10:36.921Z,74.40
2019-03-11T23:13:05.998Z,74.60
2019-03-11T23:15:34.761Z,74.00
2019-03-11T23:18:03.456Z,74.30
2019-03-11T23:20:32.258Z,74.40
2019-03-11T23:23:03.993Z,74.20
2019-03-11T23:25:32.890Z,74.50
2019-03-11T23:28:01.585Z,74.50
2019-03-11T23:30:30.373Z,74.60
2019-03-11T23:32:59.081Z,74.70
2019-03-11T23:35:27.778Z,74.60
2019-03-11T23:37:56.787Z,74.80
2019-03-11T23:40:25.503Z,74.80
2019-03-11T23:42:56.619Z,74.80
2019-03-11T23:45:25.382Z,74.40
2019-03-11T23:47:54.107Z,74.60
2019-03-11T23:50:22.842Z,74.70
2019-03-11T23:52:51.541Z,74.70
2019-03-11T23:55:20.241Z,74.60
2019-03-11T23:57:48.941Z,74.70
